createdAt,value
2019-03-18T00:02:06.433Z,3.15
2019-03-18T00:04:34.935Z,1.35
2019-03-18T00:07:05.381Z,2.35
2019-03-18T00:09:34.164Z,3.20
2019-03-18T00:12:02.728Z,2.45
2019-03-18T00:14:31.383Z,5.40
2019-03-18T00:17:00.319Z,1.95
2019-03-18T00:19:29.413Z,3.27
2019-03-18T00:22:19.757Z,5.72
2019-03-18T00:24:48.443Z,5.97
2019-03-18T00:27:20.999Z,3.55
2019-03-18T00:29:50.777Z,1.50
2019-03-18T00:32:19.542Z,1.72
2019-03-18T00:34:48.115Z,3.22
2019-03-18T00:37:16.750Z,2.75
2019-03-18T00:39:45.285Z,3.85
2019-03-18T00:42:14.008Z,3.62
2019-03-18T00:44:42.693Z,2.12
2019-03-18T00:47:11.235Z,4.92
2019-03-18T00:49:39.780Z,1.72
2019-03-18T00:52:08.632Z,2.70
2019-03-18T00:54:37.201Z,1.98
2019-03-18T00:57:05.747Z,3.10
2019-03-18T00:59:34.310Z,6.35
2019-03-18T01:02:03.315Z,3.45
2019-03-18T01:04:31.943Z,2.27
2019-03-18T01:07:00.518Z,3.15
2019-03-18T01:09:29.278Z,3.25
2019-03-18T01:11:58.184Z,2.92
2019-03-18T01:14:26.871Z,2.52
2019-03-18T01:17:03.476Z,2.10
2019-03-18T01:19:32.044Z,2.95
2019-03-18T01:22:01.140Z,6.22
2019-03-18T01:24:30.031Z,4.97
2019-03-18T01:26:58.923Z,1.47
2019-03-18T01:29:27.496Z,3.95
2019-03-18T01:31:57.714Z,1.47
2019-03-18T01:34:26.353Z,1.50
2019-03-18T01:36:54.908Z,1.70
2019-03-18T01:39:23.447Z,2.47
2019-03-18T01:41:52.095Z,3.75
2019-03-18T01:44:20.654Z,3.45
2019-03-18T01:46:49.260Z,1.67
2019-03-18T01:49:18.038Z,1.25
2019-03-18T01:51:48.147Z,2.27
2019-03-18T01:54:16.692Z,4.42
2019-03-18T01:56:45.294Z,1.30
2019-03-18T01:59:14.048Z,2.47
2019-03-18T02:01:42.687Z,3.22
2019-03-18T02:04:11.220Z,2.00
2019-03-18T02:06:39.860Z,1.90
2019-03-18T02:09:08.479Z,0.98
2019-03-18T02:11:37.058Z,1.72
2019-03-18T02:14:05.646Z,2.62
2019-03-18T02:16:34.256Z,1.60
2019-03-18T02:19:23.880Z,2.00
2019-03-18T02:21:52.426Z,0.70
2019-03-18T02:24:21.040Z,1.02
2019-03-18T02:26:49.636Z,1.20
2019-03-18T02:29:18.174Z,1.80
2019-03-18T02:31:46.818Z,1.87
2019-03-18T02:34:15.379Z,2.58
2019-03-18T02:36:44.082Z,3.10
2019-03-18T02:39:12.620Z,2.12
2019-03-18T02:41:41.183Z,1.32
2019-03-18T02:44:09.830Z,3.87
2019-03-18T02:46:38.433Z,2.98
2019-03-18T02:49:06.929Z,1.42
2019-03-18T02:51:35.506Z,2.40
2019-03-18T02:54:04.042Z,1.35
2019-03-18T02:56:32.596Z,1.98
2019-03-18T02:59:07.389Z,4.50
2019-03-18T03:01:36.032Z,3.92
2019-03-18T03:04:04.673Z,2.55
2019-03-18T03:06:33.444Z,4.78
2019-03-18T03:09:02.049Z,1.60
2019-03-18T03:11:36.448Z,4.40
2019-03-18T03:14:06.193Z,3.80
2019-03-18T03:16:34.768Z,1.07
2019-03-18T03:19:03.305Z,2.55
2019-03-18T03:21:31.921Z,1.60
2019-03-18T03:24:00.497Z,2.70
2019-03-18T03:26:29.063Z,2.90
2019-03-18T03:28:57.624Z,2.15
2019-03-18T03:31:26.204Z,2.50
2019-03-18T03:33:54.717Z,1.98
2019-03-18T03:36:23.279Z,1.30
2019-03-18T03:38:51.831Z,2.12
2019-03-18T03:41:20.424Z,2.62
2019-03-18T03:43:49.273Z,3.40
2019-03-18T03:46:17.856Z,2.15
2019-03-18T03:48:46.441Z,1.98
2019-03-18T03:51:15.061Z,4.90
2019-03-18T03:53:46.140Z,4.75
2019-03-18T03:56:14.885Z,3.00
2019-03-18T03:58:43.467Z,3.95
2019-03-18T04:01:12.003Z,3.02
2019-03-18T04:03:40.688Z,4.72
2019-03-18T04:06:09.583Z,3.90
2019-03-18T04:08:41.266Z,4.87
2019-03-18T04:11:09.850Z,4.25
2019-03-18T04:13:38.388Z,6.83
2019-03-18T04:16:06.927Z,4.92
2019-03-18T04:18:35.583Z,3.45
2019-03-18T04:21:05.861Z,3.70
2019-03-18T04:23:34.515Z,5.37
2019-03-18T04:26:03.230Z,3.40
2019-03-18T04:28:31.907Z,4.10
2019-03-18T04:31:00.449Z,3.10
2019-03-18T04:33:29.056Z,4.40
2019-03-18T04:35:57.666Z,2.85
2019-03-18T04:38:26.210Z,4.75
2019-03-18T04:40:54.950Z,6.37
2019-03-18T04:43:23.501Z,7.20
2019-03-18T04:45:52.136Z,5.97
2019-03-18T04:48:20.689Z,5.55
2019-03-18T04:50:49.294Z,4.05
2019-03-18T04:53:17.839Z,3.02
2019-03-18T04:55:46.402Z,3.77
2019-03-18T04:58:14.949Z,5.50
2019-03-18T05:00:43.500Z,3.75
2019-03-18T05:03:12.126Z,7.60
2019-03-18T05:05:40.806Z,3.37
2019-03-18T05:08:09.674Z,2.65
2019-03-18T05:10:38.209Z,5.25
2019-03-18T05:13:06.762Z,5.10
2019-03-18T05:15:35.327Z,4.28
2019-03-18T05:18:03.943Z,5.55
2019-03-18T05:35:23.722Z,7.70
2019-03-18T05:41:10.837Z,7.80
2019-03-18T05:52:39.920Z,6.65
2019-03-18T05:55:23.648Z,7.08
2019-03-18T05:57:54.321Z,5.72
2019-03-18T06:00:35.554Z,5.37
2019-03-18T06:03:04.301Z,4.85
2019-03-18T06:08:24.647Z,4.65
2019-03-18T06:10:53.295Z,6.35
2019-03-18T06:13:21.854Z,7.83
2019-03-18T06:15:50.403Z,4.58
2019-03-18T06:18:18.970Z,7.30
2019-03-18T06:20:47.927Z,9.90
2019-03-18T06:23:16.460Z,6.28
2019-03-18T06:25:45.026Z,11.90
2019-03-18T06:28:13.877Z,4.12
2019-03-18T06:30:42.445Z,7.12
2019-03-18T06:33:11.448Z,6.50
2019-03-18T06:35:40.057Z,5.03
2019-03-18T06:38:08.759Z,11.12
2019-03-18T06:40:40.368Z,10.40
2019-03-18T06:43:09.470Z,5.67
2019-03-18T06:45:38.090Z,7.42
2019-03-18T06:51:01.129Z,8.65
2019-03-18T06:53:29.682Z,7.97
2019-03-18T06:55:58.397Z,4.20
2019-03-18T06:58:26.958Z,5.50
2019-03-18T07:00:55.752Z,4.25
2019-03-18T07:03:24.532Z,4.60
2019-03-18T07:08:56.047Z,6.80
2019-03-18T07:11:24.908Z,7.35
2019-03-18T07:13:53.439Z,5.60
2019-03-18T07:16:22.026Z,4.53
2019-03-18T07:18:52.236Z,2.95
2019-03-18T07:21:20.778Z,4.00
2019-03-18T07:23:49.389Z,3.35
2019-03-18T07:26:17.975Z,3.98
2019-03-18T07:28:46.569Z,5.65
2019-03-18T07:31:15.141Z,4.78
2019-03-18T07:33:43.720Z,5.30
2019-03-18T07:36:12.371Z,7.42
2019-03-18T07:38:40.935Z,6.33
2019-03-18T07:41:09.531Z,7.22
2019-03-18T07:43:38.090Z,13.15
2019-03-18T07:46:06.665Z,6.55
2019-03-18T07:48:35.493Z,5.42
2019-03-18T07:51:04.127Z,4.70
2019-03-18T07:53:32.667Z,3.33
2019-03-18T07:56:01.242Z,4.10
2019-03-18T07:58:29.797Z,4.67
2019-03-18T08:00:58.481Z,7.30
2019-03-18T08:03:28.154Z,5.10
2019-03-18T08:05:59.853Z,5.45
2019-03-18T08:08:28.589Z,10.43
2019-03-18T08:10:57.548Z,8.38
2019-03-18T08:13:26.434Z,5.55
2019-03-18T08:15:55.145Z,6.25
2019-03-18T08:18:23.691Z,10.00
2019-03-18T08:20:52.348Z,5.60
2019-03-18T08:23:20.909Z,4.28
2019-03-18T08:25:55.409Z,10.78
2019-03-18T08:31:28.352Z,7.53
2019-03-18T08:33:59.956Z,8.70
2019-03-18T08:45:08.389Z,7.20
2019-03-18T08:47:48.524Z,3.95
2019-03-18T08:50:17.381Z,10.18
2019-03-18T08:52:50.060Z,7.90
2019-03-18T08:55:25.244Z,14.07
2019-03-18T09:00:42.466Z,10.88
2019-03-18T09:03:15.001Z,7.28
2019-03-18T09:05:46.728Z,7.92
2019-03-18T09:11:14.825Z,10.68
2019-03-18T09:13:51.431Z,12.30
2019-03-18T09:21:54.977Z,8.15
2019-03-18T09:24:35.547Z,13.85
2019-03-18T09:27:04.428Z,7.45
2019-03-18T09:29:34.236Z,6.70
2019-03-18T09:32:05.331Z,8.10
2019-03-18T09:37:54.149Z,10.05
2019-03-18T09:43:29.161Z,12.43
2019-03-18T09:46:04.534Z,13.83
2019-03-18T10:02:58.491Z,9.93
2019-03-18T10:05:43.942Z,8.65
2019-03-18T10:08:25.111Z,9.50
2019-03-18T10:10:59.189Z,11.93
2019-03-18T10:13:40.701Z,12.20
2019-03-18T10:24:56.136Z,7.92
2019-03-18T10:27:28.104Z,10.53
2019-03-18T10:29:59.026Z,10.32
2019-03-18T10:32:29.376Z,10.32
2019-03-18T10:35:01.109Z,14.73
2019-03-18T10:37:40.147Z,12.88
2019-03-18T10:51:56.310Z,8.23
2019-03-18T10:54:30.749Z,13.48
2019-03-18T11:17:56.447Z,10.40
2019-03-18T11:20:25.512Z,9.68
2019-03-18T11:22:54.142Z,11.00
2019-03-18T11:25:23.644Z,6.08
2019-03-18T11:28:02.847Z,12.30
2019-03-18T11:30:34.355Z,12.68
2019-03-18T11:33:09.601Z,11.45
2019-03-18T12:19:18.929Z,10.13
2019-03-18T12:21:52.798Z,10.93
2019-03-18T12:24:23.823Z,8.70
2019-03-18T12:30:03.802Z,8.40
2019-03-18T12:38:21.675Z,8.43
2019-03-18T12:40:56.854Z,10.30
2019-03-18T12:43:28.246Z,3.77
2019-03-18T12:46:20.961Z,5.05
2019-03-18T12:49:04.421Z,11.55
2019-03-18T12:51:44.482Z,7.12
2019-03-18T13:03:09.130Z,9.80
2019-03-18T13:05:42.442Z,6.75
2019-03-18T13:08:11.357Z,6.62
2019-03-18T13:10:40.008Z,3.72
2019-03-18T13:13:09.715Z,6.17
2019-03-18T13:15:51.047Z,7.55
2019-03-18T13:18:38.434Z,7.67
2019-03-18T13:21:17.088Z,7.20
2019-03-18T13:23:51.533Z,6.50
2019-03-18T13:32:28.619Z,6.35
2019-03-18T13:35:35.320Z,9.60
2019-03-18T13:41:05.725Z,10.63
2019-03-18T13:43:37.286Z,10.28
2019-03-18T13:46:05.876Z,9.03
2019-03-18T13:54:16.677Z,3.92
2019-03-18T13:56:46.096Z,9.20
2019-03-18T13:59:14.771Z,6.95
2019-03-18T14:01:45.604Z,9.23
2019-03-18T14:04:14.315Z,5.22
2019-03-18T14:06:47.917Z,8.63
2019-03-18T14:09:17.090Z,5.87
2019-03-18T14:11:46.676Z,7.08
2019-03-18T14:14:15.356Z,10.10
2019-03-18T14:16:44.039Z,8.15
2019-03-18T14:19:13.335Z,8.93
2019-03-18T14:21:44.832Z,10.98
2019-03-18T14:24:17.183Z,8.05
2019-03-18T14:26:45.787Z,6.42
2019-03-18T14:29:14.643Z,9.05
2019-03-18T14:31:43.774Z,10.65
2019-03-18T14:34:12.846Z,4.42
2019-03-18T14:36:44.203Z,6.37
2019-03-18T14:45:16.117Z,7.40
2019-03-18T14:53:45.379Z,6.72
2019-03-18T14:56:14.094Z,4.75
2019-03-18T14:58:42.708Z,5.70
2019-03-18T15:01:15.991Z,8.98
2019-03-18T15:06:39.275Z,6.78
2019-03-18T15:09:29.249Z,7.90
2019-03-18T15:11:57.812Z,5.60
2019-03-18T15:14:26.368Z,9.33
2019-03-18T15:16:55.098Z,6.10
2019-03-18T15:19:23.661Z,7.22
2019-03-18T15:21:58.504Z,5.95
2019-03-18T15:24:22.577Z,4.62
2019-03-18T15:26:52.589Z,9.15
2019-03-18T15:29:22.005Z,7.67
2019-03-18T15:31:52.217Z,8.08
2019-03-18T15:34:21.002Z,7.90
2019-03-18T15:36:49.897Z,4.05
2019-03-18T15:39:25.560Z,6.22
2019-03-18T15:41:52.703Z,6.12
2019-03-18T15:44:21.257Z,8.95
2019-03-18T15:46:50.057Z,8.70
2019-03-18T15:49:18.595Z,6.83
2019-03-18T15:51:47.139Z,4.95
2019-03-18T15:54:23.766Z,10.32
2019-03-18T15:56:52.492Z,4.08
2019-03-18T15:59:21.112Z,7.75
2019-03-18T16:01:51.187Z,8.10
2019-03-18T16:04:19.959Z,6.00
2019-03-18T16:06:48.736Z,10.10
2019-03-18T16:09:17.654Z,6.05
2019-03-18T16:11:46.573Z,9.08
2019-03-18T16:14:15.179Z,6.47
2019-03-18T16:16:44.015Z,9.18
2019-03-18T16:19:12.672Z,7.67
2019-03-18T16:21:41.593Z,8.40
2019-03-18T16:24:10.139Z,6.83
2019-03-18T16:26:38.727Z,5.28
2019-03-18T16:29:07.262Z,6.58
2019-03-18T16:31:35.867Z,5.83
2019-03-18T16:34:04.810Z,5.10
2019-03-18T16:36:33.353Z,9.68
2019-03-18T16:39:02.355Z,5.05
2019-03-18T16:41:36.826Z,8.88
2019-03-18T16:44:05.420Z,7.37
2019-03-18T16:46:34.645Z,7.03
2019-03-18T16:49:03.243Z,7.22
2019-03-18T16:51:31.786Z,7.42
2019-03-18T16:54:00.370Z,6.65
2019-03-18T16:56:28.950Z,11.55
2019-03-18T16:58:57.492Z,5.90
2019-03-18T17:01:26.239Z,8.20
2019-03-18T17:03:54.829Z,7.83
2019-03-18T17:06:38.016Z,8.50
2019-03-18T17:09:27.831Z,9.58
2019-03-18T17:11:56.649Z,11.12
2019-03-18T17:14:25.207Z,6.15
2019-03-18T17:16:53.885Z,4.30
2019-03-18T17:19:22.438Z,5.58
2019-03-18T17:21:51.192Z,6.37
2019-03-18T17:24:19.756Z,4.47
2019-03-18T17:26:48.355Z,7.40
2019-03-18T17:29:17.459Z,5.67
2019-03-18T17:31:46.230Z,6.12
2019-03-18T17:34:15.347Z,8.40
2019-03-18T17:36:44.445Z,4.80
2019-03-18T17:39:16.130Z,7.22
2019-03-18T17:41:44.692Z,9.90
2019-03-18T17:44:15.004Z,11.22
2019-03-18T17:46:43.545Z,8.58
2019-03-18T17:49:12.372Z,7.10
2019-03-18T17:51:41.255Z,10.80
2019-03-18T17:54:10.304Z,7.40
2019-03-18T17:56:38.852Z,8.35
2019-03-18T17:59:26.965Z,7.50
2019-03-18T18:04:23.341Z,7.78
2019-03-18T18:06:53.427Z,10.60
2019-03-18T18:09:22.328Z,11.38
2019-03-18T18:11:52.760Z,8.43
2019-03-18T18:14:21.562Z,10.43
2019-03-18T18:16:50.215Z,9.00
2019-03-18T18:19:19.115Z,12.88
2019-03-18T18:21:47.915Z,7.53
2019-03-18T18:24:16.547Z,11.08
2019-03-18T18:26:45.228Z,13.10
2019-03-18T18:29:14.681Z,9.48
2019-03-18T18:31:44.976Z,5.92
2019-03-18T18:34:13.530Z,7.90
2019-03-18T18:36:42.067Z,7.03
2019-03-18T18:39:10.651Z,10.03
2019-03-18T18:41:39.179Z,8.55
2019-03-18T18:44:08.224Z,6.47
2019-03-18T18:46:37.048Z,10.20
2019-03-18T18:49:05.656Z,7.47
2019-03-18T18:51:34.315Z,9.35
2019-03-18T18:54:03.216Z,11.93
2019-03-18T18:56:32.089Z,14.30
2019-03-18T18:59:00.611Z,11.12
2019-03-18T19:01:29.208Z,11.35
2019-03-18T19:03:57.983Z,7.60
2019-03-18T19:06:26.727Z,10.13
2019-03-18T19:08:55.306Z,13.13
2019-03-18T19:11:23.817Z,10.43
2019-03-18T19:13:52.361Z,18.45
2019-03-18T19:16:20.923Z,8.93
2019-03-18T19:18:49.813Z,5.97
2019-03-18T19:21:18.525Z,11.80
2019-03-18T19:23:47.350Z,10.68
2019-03-18T19:26:16.125Z,11.78
2019-03-18T19:28:44.914Z,9.50
2019-03-18T19:31:13.684Z,7.75
2019-03-18T19:33:42.507Z,8.13
2019-03-18T19:36:11.051Z,12.20
2019-03-18T19:38:39.597Z,8.83
2019-03-18T19:41:08.226Z,17.12
2019-03-18T19:43:36.713Z,8.60
2019-03-18T19:46:05.249Z,12.45
2019-03-18T19:48:34.491Z,18.42
2019-03-18T19:51:03.213Z,11.88
2019-03-18T19:53:31.796Z,8.73
2019-03-18T19:56:00.400Z,14.05
2019-03-18T19:58:28.891Z,10.20
2019-03-18T20:00:57.528Z,9.88
2019-03-18T20:03:26.059Z,13.40
2019-03-18T20:05:54.898Z,8.83
2019-03-18T20:08:23.612Z,8.25
2019-03-18T20:10:53.751Z,9.30
2019-03-18T20:13:22.584Z,12.00
2019-03-18T20:15:51.414Z,6.80
2019-03-18T20:18:21.541Z,11.00
2019-03-18T20:20:50.359Z,12.20
2019-03-18T20:23:19.141Z,9.08
2019-03-18T20:25:47.967Z,11.05
2019-03-18T20:28:18.316Z,11.33
2019-03-18T20:30:47.154Z,5.62
2019-03-18T20:33:16.024Z,7.70
2019-03-18T20:35:44.848Z,14.83
2019-03-18T20:38:13.607Z,9.48
2019-03-18T20:40:42.691Z,9.05
2019-03-18T20:43:11.259Z,13.93
2019-03-18T20:45:59.144Z,11.05
2019-03-18T20:48:27.683Z,10.93
2019-03-18T20:50:56.735Z,10.78
2019-03-18T20:53:25.811Z,8.88
2019-03-18T20:55:54.341Z,12.10
2019-03-18T20:58:22.900Z,21.12
2019-03-18T21:00:52.998Z,14.70
2019-03-18T21:03:22.023Z,11.70
2019-03-18T21:05:50.555Z,9.88
2019-03-18T21:08:19.138Z,14.43
2019-03-18T21:10:48.452Z,12.18
2019-03-18T21:13:17.222Z,11.05
2019-03-18T21:15:45.774Z,11.70
2019-03-18T21:18:14.256Z,13.18
2019-03-18T21:20:42.819Z,16.55
2019-03-18T21:23:11.359Z,14.10
2019-03-18T21:25:39.960Z,10.68
2019-03-18T21:28:08.519Z,11.48
2019-03-18T21:30:37.061Z,9.90
2019-03-18T21:33:05.829Z,15.15
2019-03-18T21:35:34.395Z,14.70
2019-03-18T21:38:02.947Z,11.28
2019-03-18T21:40:31.571Z,11.93
2019-03-18T21:43:00.369Z,11.93
2019-03-18T21:45:28.942Z,10.95
2019-03-18T21:47:57.485Z,8.78
2019-03-18T21:50:26.164Z,8.83
2019-03-18T21:52:55.009Z,10.23
2019-03-18T21:55:23.547Z,11.73
2019-03-18T21:57:52.143Z,11.83
2019-03-18T22:00:44.502Z,7.42
2019-03-18T22:03:13.040Z,12.58
2019-03-18T22:05:41.694Z,12.95
2019-03-18T22:08:10.230Z,11.48
2019-03-18T22:10:38.723Z,12.28
2019-03-18T22:13:07.334Z,13.22
2019-03-18T22:15:55.184Z,13.85
2019-03-18T22:20:53.440Z,12.15
2019-03-18T22:23:22.240Z,7.70
2019-03-18T22:25:50.777Z,8.43
2019-03-18T22:28:19.713Z,9.28
2019-03-18T22:30:48.351Z,13.10
2019-03-18T22:33:16.891Z,11.43
2019-03-18T22:35:45.531Z,10.65
2019-03-18T22:38:14.071Z,12.37
2019-03-18T22:40:42.611Z,9.60
2019-03-18T22:43:11.175Z,10.55
2019-03-18T22:45:39.730Z,8.13
2019-03-18T22:48:08.297Z,9.28
2019-03-18T22:50:36.829Z,14.28
2019-03-18T22:53:05.503Z,9.75
2019-03-18T22:55:34.071Z,13.60
2019-03-18T22:58:02.613Z,10.35
2019-03-18T23:00:32.971Z,17.30
2019-03-18T23:03:02.628Z,9.80
2019-03-18T23:05:31.515Z,18.35
2019-03-18T23:08:00.055Z,8.10
2019-03-18T23:10:28.627Z,17.67
2019-03-18T23:12:57.244Z,18.80
2019-03-18T23:15:25.803Z,15.75
2019-03-18T23:17:54.378Z,16.48
2019-03-18T23:20:23.321Z,8.20
2019-03-18T23:22:51.862Z,8.65
2019-03-18T23:25:20.440Z,14.18
2019-03-18T23:27:48.999Z,13.98
2019-03-18T23:30:18.061Z,13.18
2019-03-18T23:32:46.631Z,16.12
2019-03-18T23:35:15.173Z,15.08
2019-03-18T23:37:43.736Z,14.53
2019-03-18T23:40:13.519Z,14.65
2019-03-18T23:42:42.059Z,13.95
2019-03-18T23:45:31.479Z,13.78
2019-03-18T23:47:59.939Z,16.07
2019-03-18T23:50:28.485Z,11.75
2019-03-18T23:52:57.110Z,15.28
2019-03-18T23:55:25.732Z,14.33
2019-03-18T23:57:54.569Z,14.05
